Hot Springs, AR

7:06 PM CST on February 13, 2016 (GMT -0600)
APRSWXNET | | Change Station
CLOSE
Current Station
Personal Weather Station
Location: Hot Springs, AR
Elevation: 600 ft
Nearby Weather Stations

Elev 600 ft 34.51 °N, 93.05 °W | Updated 27 minutes ago

Clear
Clear
38 °F
Feels Like 34 °F
N
5
Wind Variable Wind from ENE
Gusts 10.0 mph

Today
High -- | Low -- °F
--% Chance of Precip.
Yesterday
High -- | Low -- °F
Precip. -- in
Pressure 30.37 in
Visibility 10.0 miles
Clouds Clear
Windchill 34 °F
Dew Point 14 °F
Humidity 37%
Rainfall in
Snow Depth Not available.
6:59 AM 5:53 PM
Waxing Crescent, 36% visible
METAR KHOT 140053Z AUTO 10009KT 10SM CLR 04/M11 A3036 RMK AO2 SLP283 T00391106
Pressure 30.37 in
Visibility 10.0 miles
Clouds Clear
Windchill 34 °F
Dew Point 14 °F
Humidity 37%
Rainfall in
Snow Depth Not available.
6:59 AM 5:53 PM
Waxing Crescent, 36% visible
METAR KHOT 140053Z AUTO 10009KT 10SM CLR 04/M11 A3036 RMK AO2 SLP283 T00391106

10-Day Weather Forecast

Almanac

Astronomy

Feb. 13, 2016 Rise Set
Actual Time
Civil Twilight
Nautical Twilight
Astronomical Twilight
Moon
Length of Visible Light
Length of Day
Tomorrow will be .
, % of the Moon is Illuminated

Today's Extremes

State Highs State Lows

Community

WunderPhotos

Upload Photos

1,892,720 photos uploaded!

WunderBlog® & News

Nearby

Air Quality

  Air Quality AQ Index Pollutant
Not available.

Snow Depth

Station Depth Elevation

Earthquake Activity

City Distance Mag. Time & Date
Minimum magnitude displayed is 2.5.

Coastal Water Temperatures

Place Temperature

Stations

Nearby Weather Stations

Station Location Temp. Windchill Dew Point Humidity Wind Precip. Elev Updated Type
                   

Watches & Warnings

There are currently no watches in effect.